Time;durP1;ratioP1;P1;durP2;ratioP2;P2;SDS_P1;SDS_P2;PMS_P1;PMS_P2;Temp;Humidity;BMP_temperature;BMP_pressure;BME280_temperature;BME280_humidity;BME280_pressure;Samples;Min_cycle;Max_cycle;Signal;HPM_P1;HPM_P2
2022/06/11 00:02:00;;;;;;;4.57;4.18;;;;;;;17.05;71.96;96251.00;5044852;28;20225;-81
2022/06/11 00:04:30;;;;;;;4.85;4.45;;;;;;;17.03;71.96;96247.81;5057311;28;20236;-81
2022/06/11 00:06:59;;;;;;;4.88;4.15;;;;;;;16.93;72.91;96257.81;5060683;28;20201;-81
2022/06/11 00:09:26;;;;;;;4.68;4.22;;;;;;;16.86;72.55;96244.81;5042734;28;20233;-81
2022/06/11 00:11:54;;;;;;;6.28;4.63;;;;;;;16.82;73.65;96248.00;5057719;28;20220;-81
2022/06/11 00:14:21;;;;;;;4.35;4.00;;;;;;;16.85;73.26;96247.59;5062980;28;20213;-81
2022/06/11 00:16:47;;;;;;;4.18;3.70;;;;;;;16.90;72.68;96258.22;5047292;28;20194;-81
2022/06/11 00:19:15;;;;;;;4.88;4.00;;;;;;;16.82;72.89;96241.00;5062397;28;20607;-81
2022/06/11 00:21:44;;;;;;;4.22;3.92;;;;;;;16.82;72.78;96248.78;5048469;28;20249;-81
2022/06/11 00:24:11;;;;;;;3.92;3.53;;;;;;;16.84;72.67;96249.41;5042738;28;20222;-81
2022/06/11 00:26:39;;;;;;;4.43;3.90;;;;;;;16.86;72.04;96249.19;5053933;28;20211;-81
2022/06/11 00:29:06;;;;;;;4.93;3.70;;;;;;;16.81;72.17;96247.19;5042794;28;20218;-81
2022/06/11 00:31:33;;;;;;;5.38;3.58;;;;;;;16.86;71.61;96252.59;5046379;28;20206;-81
2022/06/11 00:34:00;;;;;;;4.93;3.85;;;;;;;16.74;72.13;96246.38;5041803;28;20237;-81
2022/06/11 00:36:26;;;;;;;4.07;3.63;;;;;;;16.71;72.27;96246.00;5051389;28;20197;-81
2022/06/11 00:38:54;;;;;;;5.47;3.72;;;;;;;16.71;72.22;96236.38;5044633;28;20221;-81
2022/06/11 00:41:23;;;;;;;4.07;3.67;;;;;;;16.68;72.94;96228.97;5058201;28;20201;-81
2022/06/11 00:43:52;;;;;;;3.80;3.50;;;;;;;16.66;72.99;96232.78;5061721;28;20393;-81
2022/06/11 00:46:47;;;;;;;4.47;3.50;;;;;;;16.66;72.59;96233.56;5046751;28;20221;-81
2022/06/11 00:49:21;;;;;;;6.38;3.60;;;;;;;16.69;72.17;96238.38;5061470;28;20263;-81
2022/06/11 00:51:52;;;;;;;4.03;3.72;;;;;;;16.68;72.31;96233.38;5042344;28;20272;-82
2022/06/11 00:54:25;;;;;;;5.47;3.60;;;;;;;16.66;72.16;96230.16;5041870;28;20413;-81
2022/06/11 00:56:55;;;;;;;3.92;3.50;;;;;;;16.66;72.04;96230.16;5060430;28;20205;-81
2022/06/11 00:59:26;;;;;;;4.07;3.67;;;;;;;16.57;72.36;96230.31;5041642;28;20244;-81
2022/06/11 01:01:53;;;;;;;3.30;3.00;;;;;;;16.64;71.66;96229.56;5041536;28;20202;-81
2022/06/11 01:04:47;;;;;;;5.25;3.47;;;;;;;16.67;71.48;96229.97;5060260;28;20202;-81
2022/06/11 01:07:40;;;;;;;4.80;3.47;;;;;;;16.67;71.70;96229.97;5049624;28;20204;-81
2022/06/11 01:10:21;;;;;;;3.85;3.45;;;;;;;16.71;70.84;96226.00;5040895;28;20218;-82
2022/06/11 01:12:57;;;;;;;3.95;3.40;;;;;;;16.66;70.96;96220.56;5048029;28;20229;-81
2022/06/11 01:15:28;;;;;;;3.50;3.20;;;;;;;16.65;70.99;96221.56;5057352;28;20262;-81
2022/06/11 01:18:07;;;;;;;4.85;3.25;;;;;;;16.61;71.19;96217.72;5049845;28;20194;-81
2022/06/11 01:20:41;;;;;;;4.75;3.03;;;;;;;16.51;71.26;96219.94;5056252;28;20210;-82
2022/06/11 01:23:44;;;;;;;4.05;3.67;;;;;;;16.43;71.99;96220.09;5040853;28;20249;-81
2022/06/11 01:26:37;;;;;;;3.85;3.50;;;;;;;16.33;72.41;96219.69;5049106;28;20251;-81
2022/06/11 01:29:30;;;;;;;3.50;3.15;;;;;;;16.35;72.54;96217.69;5042663;28;20226;-82
2022/06/11 01:32:02;;;;;;;3.80;3.17;;;;;;;16.39;71.69;96226.69;5056121;28;20205;-81
2022/06/11 01:34:35;;;;;;;4.55;3.50;;;;;;;16.33;72.64;96219.69;5060822;28;20228;-81
2022/06/11 01:37:07;;;;;;;3.75;3.45;;;;;;;16.38;72.41;96217.28;5045871;28;20193;-81
2022/06/11 01:39:39;;;;;;;3.78;3.47;;;;;;;16.38;72.34;96218.09;5061293;28;20783;-81
2022/06/11 01:42:15;;;;;;;3.80;3.25;;;;;;;16.41;71.71;96216.91;5044039;28;20229;-82
2022/06/11 01:44:44;;;;;;;4.53;3.25;;;;;;;16.30;72.27;96217.47;5040577;28;20202;-81
2022/06/11 01:47:15;;;;;;;3.40;3.10;;;;;;;16.27;72.28;96213.47;5042146;28;20662;-81
2022/06/11 01:49:45;;;;;;;3.50;3.20;;;;;;;16.26;71.82;96217.06;5060681;28;20228;-81
2022/06/11 01:52:29;;;;;;;3.60;3.13;;;;;;;16.32;72.04;96205.91;5040722;28;20877;-81
2022/06/11 01:55:03;;;;;;;3.50;3.20;;;;;;;16.30;71.94;96210.50;5041256;28;20198;-81
2022/06/11 01:57:55;;;;;;;3.55;3.22;;;;;;;16.34;71.47;96213.50;5042101;28;20193;-81
2022/06/11 02:00:26;;;;;;;3.42;3.00;;;;;;;16.27;71.47;96213.47;5040535;28;20249;-81
2022/06/11 02:03:03;;;;;;;3.25;2.95;;;;;;;16.26;71.38;96213.66;5041136;28;20233;-81
2022/06/11 02:05:41;;;;;;;3.03;2.80;;;;;;;16.26;71.79;96211.88;5060934;28;20692;-81
2022/06/11 02:08:15;;;;;;;3.40;3.13;;;;;;;16.30;71.33;96217.47;5056896;28;20599;-81
2022/06/11 02:10:48;;;;;;;3.60;3.30;;;;;;;16.20;71.92;96221.25;5043743;28;20226;-81
2022/06/11 02:13:25;;;;;;;3.78;3.40;;;;;;;16.10;72.42;96214.81;5043112;28;20221;-81
2022/06/11 02:15:57;;;;;;;3.35;3.05;;;;;;;16.00;73.27;96220.38;5042830;28;20205;-81
2022/06/11 02:18:27;;;;;;;3.28;3.08;;;;;;;16.02;72.43;96215.00;5044488;28;20197;-81
2022/06/11 02:21:00;;;;;;;3.20;2.90;;;;;;;16.01;72.89;96216.78;5042552;28;20205;-81
2022/06/11 02:23:32;;;;;;;4.03;3.33;;;;;;;15.92;73.20;96217.16;5056978;28;20728;-82
2022/06/11 02:26:04;;;;;;;3.45;3.05;;;;;;;15.88;72.98;96214.16;5062932;28;20265;-81
2022/06/11 02:28:34;;;;;;;3.45;3.15;;;;;;;15.87;73.36;96218.53;5046741;28;20641;-81
2022/06/11 02:31:08;;;;;;;4.88;3.25;;;;;;;15.84;73.66;96218.91;5042252;28;20202;-81
2022/06/11 02:33:37;;;;;;;5.22;3.28;;;;;;;15.80;74.15;96217.69;5057900;28;20297;-81
2022/06/11 02:36:13;;;;;;;2.97;2.78;;;;;;;15.85;73.42;96235.31;5062486;28;20206;-81
2022/06/11 02:38:41;;;;;;;4.63;3.30;;;;;;;15.82;73.79;96233.88;5045159;28;20202;-81
2022/06/11 02:41:12;;;;;;;3.15;2.95;;;;;;;15.78;74.52;96231.88;5053209;28;20193;-81
2022/06/11 02:43:39;;;;;;;3.45;3.15;;;;;;;15.75;74.32;96232.28;5062275;28;20308;-81
2022/06/11 02:48:48;;;;;;;3.55;3.10;;;;;;;15.63;75.36;96242.38;5059172;28;20229;-81
2022/06/11 02:51:14;;;;;;;3.20;2.92;;;;;;;15.66;75.04;96241.19;5050527;28;20194;-81
2022/06/11 02:53:41;;;;;;;3.30;3.00;;;;;;;15.71;74.55;96242.25;5041659;28;20253;-81
2022/06/11 02:56:07;;;;;;;5.90;3.50;;;;;;;15.78;74.03;96237.88;5049680;28;20213;-81
2022/06/11 02:58:33;;;;;;;4.43;3.03;;;;;;;15.81;73.95;96239.28;5052393;28;20212;-81
2022/06/11 03:01:00;;;;;;;4.35;3.17;;;;;;;15.87;73.44;96244.50;5052568;28;20202;-81
2022/06/11 03:03:27;;;;;;;3.65;3.08;;;;;;;15.88;73.52;96245.31;5042480;28;20217;-82
2022/06/11 03:05:55;;;;;;;3.50;3.17;;;;;;;15.92;73.21;96251.72;5056366;28;20205;-81
2022/06/11 03:08:22;;;;;;;4.30;3.08;;;;;;;15.91;73.36;96252.72;5056580;28;20634;-81
2022/06/11 03:10:54;;;;;;;3.55;2.90;;;;;;;15.91;73.29;96254.50;5047970;28;20918;-81
2022/06/11 03:13:20;;;;;;;3.40;3.10;;;;;;;15.75;73.85;96256.44;5036052;28;20229;-82
2022/06/11 03:15:47;;;;;;;3.45;3.15;;;;;;;15.76;73.40;96259.84;5045475;28;20259;-81
2022/06/11 03:18:14;;;;;;;3.60;3.28;;;;;;;15.79;73.62;96260.25;5052887;28;20276;-81
2022/06/11 03:20:41;;;;;;;3.50;3.10;;;;;;;15.84;73.62;96267.47;5036362;28;20308;-81
2022/06/11 03:23:09;;;;;;;3.70;3.30;;;;;;;15.73;74.01;96263.63;5038071;28;20256;-82
2022/06/11 03:25:35;;;;;;;3.42;2.80;;;;;;;15.75;74.06;96271.22;5049675;28;20195;-81
2022/06/11 03:28:07;;;;;;;4.10;2.85;;;;;;;15.79;74.08;96267.22;5037455;28;20206;-81
2022/06/11 03:30:34;;;;;;;4.20;2.90;;;;;;;15.75;73.78;96266.84;5049417;28;20214;-80
2022/06/11 03:33:00;;;;;;;3.22;3.00;;;;;;;15.81;73.39;96265.25;5036816;28;20230;-80
2022/06/11 03:35:26;;;;;;;3.35;3.05;;;;;;;15.79;72.85;96267.22;5042270;28;20198;-81
2022/06/11 03:37:53;;;;;;;2.83;2.60;;;;;;;15.74;72.82;96260.03;5056654;28;20202;-81
2022/06/11 03:40:23;;;;;;;3.35;3.05;;;;;;;15.73;73.43;96270.59;5036458;28;20222;-80
2022/06/11 03:42:50;;;;;;;3.35;3.05;;;;;;;15.73;73.33;96273.22;5042962;28;20271;-80
2022/06/11 03:45:17;;;;;;;5.00;3.10;;;;;;;15.74;73.20;96277.41;5051420;28;20752;-80
2022/06/11 03:47:43;;;;;;;3.58;3.28;;;;;;;15.71;73.45;96280.38;5036742;28;20824;-81
2022/06/11 03:50:15;;;;;;;5.03;3.10;;;;;;;15.74;73.22;96285.19;5038312;28;20241;-80
2022/06/11 03:52:42;;;;;;;3.35;3.05;;;;;;;15.70;73.85;96279.56;5056725;28;20233;-80
2022/06/11 03:55:09;;;;;;;3.15;2.95;;;;;;;15.74;73.70;96287.78;5053526;28;20199;-80
2022/06/11 03:57:37;;;;;;;3.58;3.28;;;;;;;15.68;74.14;96285.94;5036287;28;20206;-80
2022/06/11 04:00:07;;;;;;;3.47;3.17;;;;;;;15.73;74.40;96288.78;5037482;28;20221;-79
2022/06/11 04:02:33;;;;;;;3.30;3.10;;;;;;;15.79;73.75;96288.81;5041328;28;20224;-81
2022/06/11 04:04:59;;;;;;;3.78;3.10;;;;;;;15.84;76.26;96291.63;5055455;28;20202;-80
2022/06/11 04:07:26;;;;;;;3.50;3.17;;;;;;;15.99;75.39;96294.09;5056402;28;20669;-80
2022/06/11 04:09:52;;;;;;;3.10;2.90;;;;;;;16.14;74.34;96294.00;5048285;28;20252;-81
2022/06/11 04:12:19;;;;;;;3.83;3.28;;;;;;;16.21;72.99;96292.19;5042961;28;20233;-79
2022/06/11 04:14:49;;;;;;;3.10;2.88;;;;;;;16.30;74.06;96295.44;5056875;28;20215;-80
2022/06/11 04:17:20;;;;;;;3.25;3.03;;;;;;;16.37;73.76;96297.06;5037105;28;20198;-79
2022/06/11 04:19:49;;;;;;;3.30;3.00;;;;;;;16.47;72.98;96301.91;5036758;28;20280;-80
2022/06/11 04:22:16;;;;;;;3.90;3.50;;;;;;;16.44;73.25;96300.50;5042527;28;20282;-79
2022/06/11 04:24:43;;;;;;;3.85;3.20;;;;;;;16.48;72.78;96301.72;5057484;28;20594;-80
2022/06/11 04:27:13;;;;;;;4.00;3.00;;;;;;;16.43;74.19;96301.47;5037504;28;20665;-80
2022/06/11 04:29:43;;;;;;;3.60;3.30;;;;;;;16.46;73.40;96302.91;5036159;28;20238;-79
2022/06/11 04:32:15;;;;;;;3.63;3.17;;;;;;;16.46;73.41;96302.91;5047820;28;20230;-80
2022/06/11 04:34:45;;;;;;;3.33;3.03;;;;;;;16.51;73.56;96308.31;5055516;28;20902;-80
2022/06/11 04:37:13;;;;;;;6.15;3.35;;;;;;;16.57;73.43;96312.72;5060742;28;20220;-79
2022/06/11 04:39:41;;;;;;;3.80;2.95;;;;;;;16.58;73.52;96309.13;5043490;28;20245;-80
2022/06/11 04:42:09;;;;;;;3.38;3.08;;;;;;;16.67;73.61;96308.00;5047863;28;20234;-81
2022/06/11 04:44:36;;;;;;;5.10;3.28;;;;;;;16.68;73.87;96314.78;5037746;28;20264;-81
2022/06/11 04:47:03;;;;;;;3.38;3.10;;;;;;;16.76;73.68;96309.41;5040662;28;20666;-79
2022/06/11 04:49:30;;;;;;;3.40;3.10;;;;;;;16.82;73.48;96307.81;5047616;28;20233;-80
2022/06/11 04:51:57;;;;;;;3.63;3.33;;;;;;;16.91;72.90;96307.44;5053556;28;20197;-81
2022/06/11 04:54:24;;;;;;;4.03;3.15;;;;;;;16.95;72.93;96307.03;5034501;28;20245;-81
2022/06/11 04:56:51;;;;;;;3.83;3.00;;;;;;;17.01;72.74;96308.84;5053002;28;20227;-78
2022/06/11 04:59:17;;;;;;;4.25;3.38;;;;;;;17.21;74.23;96309.66;5055585;28;20279;-80
2022/06/11 05:01:44;;;;;;;3.70;3.40;;;;;;;17.27;72.74;96311.47;5041853;28;20197;-80
2022/06/11 05:04:12;;;;;;;3.78;3.13;;;;;;;17.34;72.14;96321.88;5047104;28;20206;-80
2022/06/11 05:06:42;;;;;;;3.72;2.95;;;;;;;17.50;72.83;96321.47;5055652;28;20205;-80
2022/06/11 05:09:12;;;;;;;3.22;2.80;;;;;;;17.63;73.14;96318.84;5055150;28;20306;-81
2022/06/11 05:11:39;;;;;;;2.80;2.60;;;;;;;17.75;71.24;96322.47;5044106;28;20260;-81
2022/06/11 05:14:06;;;;;;;3.30;3.00;;;;;;;17.92;71.32;96317.63;5055241;28;20233;-80
2022/06/11 05:16:34;;;;;;;5.10;3.05;;;;;;;18.07;70.94;96320.00;5042158;28;20198;-80
2022/06/11 05:19:01;;;;;;;4.28;2.97;;;;;;;18.23;70.48;96322.16;5035933;28;20291;-80
2022/06/11 05:21:28;;;;;;;3.38;2.90;;;;;;;18.37;70.18;96321.09;5034812;28;20210;-81
2022/06/11 05:23:56;;;;;;;3.50;3.10;;;;;;;18.48;68.62;96317.03;5042370;28;20225;-82
2022/06/11 05:26:25;;;;;;;3.20;2.90;;;;;;;18.45;69.04;96317.47;5059774;28;20198;-82
2022/06/11 05:28:51;;;;;;;3.70;3.10;;;;;;;18.39;68.74;96320.88;5055492;28;20613;-81
2022/06/11 05:31:18;;;;;;;2.90;2.70;;;;;;;18.37;68.71;96318.50;5039321;28;20209;-80
2022/06/11 05:33:45;;;;;;;4.38;3.00;;;;;;;18.27;69.09;96328.56;5042190;28;20229;-81
2022/06/11 05:36:13;;;;;;;3.30;3.00;;;;;;;18.17;69.41;96325.59;5049930;28;20206;-81
2022/06/11 05:38:40;;;;;;;5.15;3.25;;;;;;;18.09;69.82;96331.81;5040484;28;20252;-81
2022/06/11 05:41:08;;;;;;;3.45;3.10;;;;;;;18.07;69.73;96327.84;5039700;28;20208;-80
2022/06/11 05:43:35;;;;;;;3.72;3.00;;;;;;;18.08;69.80;96325.03;5041194;28;20237;-80
2022/06/11 05:46:06;;;;;;;3.40;3.10;;;;;;;18.11;69.89;96326.38;5042952;28;20256;-80
2022/06/11 05:48:36;;;;;;;3.72;2.80;;;;;;;18.23;70.16;96324.78;5042780;28;20260;-80
2022/06/11 05:51:03;;;;;;;3.03;2.83;;;;;;;18.19;69.32;96326.97;5042326;28;20209;-81
2022/06/11 05:53:33;;;;;;;4.82;3.03;;;;;;;18.13;69.74;96322.59;5043333;28;20230;-81
2022/06/11 05:56:01;;;;;;;2.97;2.78;;;;;;;18.22;69.74;96326.56;5043097;28;20209;-81
2022/06/11 05:58:33;;;;;;;3.58;2.97;;;;;;;18.28;69.63;96327.53;5043173;28;20202;-81
2022/06/11 06:01:01;;;;;;;4.53;2.80;;;;;;;18.41;69.47;96334.53;5042207;28;20198;-80
2022/06/11 06:03:27;;;;;;;2.83;2.63;;;;;;;18.48;69.56;96323.03;5047673;28;20228;-80
2022/06/11 06:05:54;;;;;;;3.92;2.70;;;;;;;18.52;69.40;96329.44;5063076;28;20484;-81
2022/06/11 06:08:20;;;;;;;3.00;2.80;;;;;;;18.56;69.39;96322.00;5062281;28;20208;-80
2022/06/11 06:10:46;;;;;;;3.38;3.08;;;;;;;18.63;69.12;96331.47;5061651;28;20228;-80
2022/06/11 06:15:58;;;;;;;2.90;2.70;;;;;;;18.76;67.85;96332.38;5062982;28;20204;-80
2022/06/11 06:18:25;;;;;;;3.97;2.42;;;;;;;18.78;68.16;96323.34;5062027;28;20201;-80
2022/06/11 06:20:51;;;;;;;3.00;2.70;;;;;;;18.85;68.01;96329.34;5061831;28;20217;-80
2022/06/11 06:23:18;;;;;;;3.08;2.80;;;;;;;18.86;67.50;96335.31;5061573;28;20306;-80
2022/06/11 06:25:44;;;;;;;2.70;2.50;;;;;;;18.91;67.36;96331.09;5062386;28;20275;-80
2022/06/11 06:28:11;;;;;;;3.85;2.92;;;;;;;18.99;67.06;96335.25;5062212;28;20251;-79
2022/06/11 06:30:37;;;;;;;2.92;2.72;;;;;;;19.09;67.47;96334.78;5062791;28;20217;-80
2022/06/11 06:33:05;;;;;;;6.15;2.88;;;;;;;19.11;67.33;96340.59;5061430;28;20781;-80
2022/06/11 06:35:32;;;;;;;3.40;2.80;;;;;;;19.19;67.21;96342.97;5062304;28;20209;-81
2022/06/11 06:37:59;;;;;;;3.28;2.97;;;;;;;19.25;67.15;96339.47;5061971;28;20201;-80
2022/06/11 06:40:25;;;;;;;2.88;2.67;;;;;;;19.30;66.74;96339.66;5060881;28;20253;-80
2022/06/11 06:42:52;;;;;;;2.95;2.60;;;;;;;19.33;66.32;96344.47;5061190;28;20684;-80
2022/06/11 06:45:20;;;;;;;3.50;2.75;;;;;;;19.38;65.82;96346.44;5062024;28;20205;-83
2022/06/11 06:47:46;;;;;;;2.75;2.55;;;;;;;19.37;65.64;96337.00;5065656;28;20212;-83
2022/06/11 06:50:15;;;;;;;3.40;2.75;;;;;;;19.41;65.55;96338.19;5061306;28;20225;-80
2022/06/11 06:52:41;;;;;;;2.60;2.30;;;;;;;19.49;65.44;96341.31;5060904;28;20237;-81
2022/06/11 06:55:08;;;;;;;2.80;2.28;;;;;;;19.54;65.01;96335.50;5059651;28;20205;-81
2022/06/11 06:57:35;;;;;;;2.60;2.40;;;;;;;19.50;64.54;96350.78;5060963;28;20206;-81
2022/06/11 07:00:03;;;;;;;2.58;2.17;;;;;;;19.54;63.60;96341.50;5060310;28;20295;-80
2022/06/11 07:02:30;;;;;;;2.65;2.45;;;;;;;19.60;63.62;96343.28;5059854;28;20229;-80
2022/06/11 07:04:57;;;;;;;2.67;2.47;;;;;;;19.60;62.86;96339.88;5061038;28;20202;-81
2022/06/11 07:07:25;;;;;;;2.10;2.00;;;;;;;19.65;63.39;96345.22;5059970;28;20275;-80
2022/06/11 07:09:54;;;;;;;3.03;2.30;;;;;;;19.68;62.25;96342.19;5059798;28;20221;-79
2022/06/11 07:12:20;;;;;;;2.40;2.20;;;;;;;19.75;62.96;96347.38;5060112;28;20742;-81
2022/06/11 07:14:47;;;;;;;2.65;2.45;;;;;;;19.81;62.35;96344.72;5060658;28;20205;-81
2022/06/11 07:17:15;;;;;;;2.92;2.30;;;;;;;19.93;61.76;96342.97;5061225;28;20622;-81
2022/06/11 07:19:46;;;;;;;2.53;2.33;;;;;;;19.94;61.69;96344.56;5060977;28;20222;-81
2022/06/11 07:22:17;;;;;;;3.92;2.55;;;;;;;20.00;61.47;96335.06;5060086;28;20229;-80
2022/06/11 07:24:45;;;;;;;2.70;2.40;;;;;;;20.10;60.48;96339.78;5060788;28;20201;-80
2022/06/11 07:27:15;;;;;;;3.25;2.25;;;;;;;20.16;60.38;96337.09;5061038;28;20596;-80
2022/06/11 07:29:45;;;;;;;2.78;2.22;;;;;;;20.25;61.10;96333.16;5060723;28;20229;-81
2022/06/11 07:32:17;;;;;;;4.93;2.65;;;;;;;20.31;59.92;96329.69;5039823;28;20252;-80
2022/06/11 07:34:44;;;;;;;3.45;2.40;;;;;;;20.38;59.35;96334.88;5040752;28;20221;-80
2022/06/11 07:37:11;;;;;;;2.60;2.40;;;;;;;20.46;59.29;96331.16;5041195;28;20202;-80
2022/06/11 07:39:38;;;;;;;2.42;2.20;;;;;;;20.53;58.77;96337.13;5039995;28;20222;-80
2022/06/11 07:42:07;;;;;;;3.00;2.60;;;;;;;20.58;57.53;96327.59;5039395;28;20245;-81
2022/06/11 07:44:35;;;;;;;2.55;2.35;;;;;;;20.66;57.24;96332.50;5039577;28;20198;-81
2022/06/11 07:47:01;;;;;;;3.33;2.20;;;;;;;20.79;58.52;96328.09;5039579;28;20202;-80
2022/06/11 07:49:28;;;;;;;2.50;2.30;;;;;;;20.92;57.19;96331.34;5038939;28;20222;-82
2022/06/11 07:51:55;;;;;;;5.15;2.40;;;;;;;20.94;55.18;96329.31;5038662;28;20916;-80
2022/06/11 07:54:21;;;;;;;2.85;2.10;;;;;;;21.03;56.87;96329.78;5039874;28;20589;-80
2022/06/11 07:56:48;;;;;;;2.50;2.30;;;;;;;21.11;57.46;96328.69;5039206;28;20209;-80
2022/06/11 07:59:16;;;;;;;3.10;2.25;;;;;;;21.12;54.33;96327.66;5041253;28;20228;-81
2022/06/11 08:01:42;;;;;;;4.57;2.25;;;;;;;21.15;54.35;96330.63;5041358;28;20198;-81
2022/06/11 08:04:09;;;;;;;3.42;2.10;;;;;;;21.23;55.70;96330.31;5050758;28;20252;-81
2022/06/11 08:06:35;;;;;;;2.13;2.03;;;;;;;21.41;54.82;96328.63;5062128;28;20883;-81
2022/06/11 08:09:02;;;;;;;3.58;3.28;;;;;;;21.45;54.47;96322.72;5059025;28;20278;-81
2022/06/11 08:11:28;;;;;;;4.65;4.25;;;;;;;21.63;53.71;96329.69;5057149;28;20277;-80
2022/06/11 08:13:55;;;;;;;3.70;3.40;;;;;;;21.75;53.95;96329.69;5059206;28;20735;-81
2022/06/11 08:16:23;;;;;;;2.88;2.67;;;;;;;21.93;53.52;96330.38;5060777;28;20228;-80
2022/06/11 08:18:49;;;;;;;2.80;2.53;;;;;;;22.04;52.91;96320.94;5059374;28;20206;-81
2022/06/11 08:21:16;;;;;;;4.68;2.42;;;;;;;22.17;52.45;96328.53;5059107;28;20221;-81
2022/06/11 08:23:42;;;;;;;3.05;2.60;;;;;;;22.20;51.20;96319.41;5072518;28;20252;-80
2022/06/11 08:26:09;;;;;;;2.47;2.10;;;;;;;22.30;51.75;96327.50;5076981;28;20201;-80
2022/06/11 08:28:36;;;;;;;2.63;2.42;;;;;;;22.43;51.31;96331.69;5076387;28;20201;-81
2022/06/11 08:31:04;;;;;;;3.63;2.50;;;;;;;22.54;51.15;96325.59;5075777;28;20216;-80
2022/06/11 08:33:33;;;;;;;2.65;2.42;;;;;;;22.65;51.42;96332.66;5075339;28;20253;-81
2022/06/11 08:36:00;;;;;;;3.20;2.17;;;;;;;22.70;51.29;96330.91;5075845;28;20264;-80
2022/06/11 08:38:26;;;;;;;2.40;2.20;;;;;;;22.81;48.54;96331.13;5075890;28;20270;-81
2022/06/11 08:40:54;;;;;;;2.40;2.20;;;;;;;22.81;47.45;96329.28;5076314;28;20715;-80
2022/06/11 08:43:26;;;;;;;2.45;2.22;;;;;;;22.99;48.13;96328.28;5075603;28;20684;-80
2022/06/11 08:45:56;;;;;;;2.65;2.35;;;;;;;23.06;47.37;96331.59;5076584;28;20205;-80
2022/06/11 08:48:43;;;;;;;2.80;2.38;;;;;;;23.12;46.67;96327.19;5076439;28;20200;-80
2022/06/11 08:51:18;;;;;;;3.15;2.50;;;;;;;23.16;46.87;96328.31;5076393;28;20223;-80
2022/06/11 08:53:45;;;;;;;3.10;2.80;;;;;;;23.11;46.64;96328.22;5077361;28;20273;-80
2022/06/11 08:56:19;;;;;;;3.05;2.38;;;;;;;23.18;46.66;96328.88;5075999;28;20196;-80
2022/06/11 08:58:58;;;;;;;3.53;2.50;;;;;;;23.30;46.80;96326.97;5075731;28;20286;-81
2022/06/11 09:01:35;;;;;;;2.60;2.40;;;;;;;23.50;46.50;96326.50;5076740;28;20192;-81
2022/06/11 09:04:15;;;;;;;2.92;2.30;;;;;;;23.50;45.35;96321.25;5078814;28;20232;-80
2022/06/11 09:07:21;;;;;;;3.08;2.60;;;;;;;23.58;45.77;96318.25;5077008;28;20196;-80
2022/06/11 09:10:02;;;;;;;3.05;2.75;;;;;;;23.81;45.90;96322.53;5035656;28;20222;-80
2022/06/11 09:12:46;;;;;;;3.55;2.17;;;;;;;23.91;47.44;96322.66;5075306;28;20251;-80
2022/06/11 09:15:22;;;;;;;2.67;2.30;;;;;;;23.72;47.17;96322.13;5078815;28;20307;-80
2022/06/11 09:18:17;;;;;;;3.08;2.58;;;;;;;23.39;45.29;96320.31;5077763;28;20208;-80
2022/06/11 09:20:57;;;;;;;7.95;7.25;;;;;;;23.64;45.28;96312.03;5076798;28;20720;-80
2022/06/11 09:23:56;;;;;;;4.05;3.75;;;;;;;24.03;45.53;96302.31;5077293;28;20230;-79
2022/06/11 09:26:31;;;;;;;2.40;2.20;;;;;;;23.90;44.89;96308.72;5070171;28;20699;-80
2022/06/11 09:29:11;;;;;;;4.43;2.45;;;;;;;24.02;44.76;96306.00;5077617;28;20224;-80
2022/06/11 09:31:42;;;;;;;2.72;2.38;;;;;;;23.93;45.92;96307.44;5078276;28;20220;-80
2022/06/11 09:34:11;;;;;;;3.65;2.60;;;;;;;23.83;45.25;96309.94;5077790;28;20236;-80
2022/06/11 09:36:42;;;;;;;2.55;2.35;;;;;;;24.05;45.19;96301.00;5079336;28;20253;-80
2022/06/11 09:39:21;;;;;;;3.55;2.80;;;;;;;24.46;45.39;96301.53;5078066;28;20220;-80
2022/06/11 09:41:55;;;;;;;3.17;2.30;;;;;;;24.38;44.18;96299.34;5079408;28;20202;-80
2022/06/11 09:44:38;;;;;;;3.13;2.40;;;;;;;24.42;43.64;96305.72;5079742;28;20254;-80
2022/06/11 09:47:18;;;;;;;2.83;2.33;;;;;;;24.71;44.13;96307.09;5079800;28;20201;-80
2022/06/11 09:49:54;;;;;;;2.45;2.25;;;;;;;24.71;41.82;96303.66;5079524;28;20716;-80
2022/06/11 09:52:30;;;;;;;2.88;2.40;;;;;;;24.87;42.12;96307.25;5078049;28;20727;-81
2022/06/11 09:55:05;;;;;;;2.78;2.58;;;;;;;25.13;42.98;96303.84;5079750;28;20270;-80
2022/06/11 09:57:41;;;;;;;2.53;2.00;;;;;;;25.08;42.49;96306.41;5079392;28;20201;-80
2022/06/11 10:00:17;;;;;;;3.10;2.40;;;;;;;25.12;41.98;96299.59;5078747;28;20270;-80
2022/06/11 10:02:50;;;;;;;2.92;2.30;;;;;;;25.27;41.33;96298.94;5081534;28;20224;-80
2022/06/11 10:05:25;;;;;;;2.90;2.05;;;;;;;25.31;40.81;96292.91;5062197;28;20650;-80
2022/06/11 10:07:57;;;;;;;2.80;2.28;;;;;;;25.44;40.99;96300.38;5059636;28;20523;-79
2022/06/11 10:10:27;;;;;;;2.47;2.20;;;;;;;25.25;41.54;96304.47;5058988;28;20229;-80
2022/06/11 10:12:58;;;;;;;2.67;2.10;;;;;;;24.91;43.23;96303.88;5057997;28;20229;-79
2022/06/11 10:15:28;;;;;;;2.45;2.28;;;;;;;24.53;43.38;96304.00;5058894;28;20205;-79
2022/06/11 10:18:00;;;;;;;4.05;2.40;;;;;;;24.27;43.07;96301.06;5059649;28;20205;-79
2022/06/11 10:20:30;;;;;;;4.07;2.08;;;;;;;24.05;43.64;96311.53;5059543;28;20241;-79
2022/06/11 10:23:03;;;;;;;3.83;2.25;;;;;;;23.90;43.56;96303.47;5058841;28;20225;-80
2022/06/11 10:25:33;;;;;;;2.80;2.60;;;;;;;23.79;45.33;96309.63;5058780;28;20197;-79
2022/06/11 10:28:03;;;;;;;3.28;2.42;;;;;;;23.96;43.63;96301.69;5058134;28;20612;-80
2022/06/11 10:30:39;;;;;;;2.28;2.08;;;;;;;23.93;44.00;96302.19;5067901;28;20228;-80
2022/06/11 10:33:13;;;;;;;3.50;2.65;;;;;;;23.77;44.55;96307.22;5082240;28;20236;-81
2022/06/11 10:35:44;;;;;;;5.00;4.50;;;;;;;23.53;45.49;96305.81;5082518;28;20679;-80
2022/06/11 10:38:24;;;;;;;13.02;11.82;;;;;;;23.43;46.47;96306.44;5080256;28;20189;-79
2022/06/11 10:40:53;;;;;;;3.00;2.80;;;;;;;23.29;47.29;96302.53;5067386;28;20770;-80
2022/06/11 10:43:28;;;;;;;3.35;2.90;;;;;;;23.49;44.98;96303.88;5067465;28;20228;-78
2022/06/11 10:45:56;;;;;;;3.95;3.55;;;;;;;23.70;45.89;96303.97;5076208;28;20228;-79
2022/06/11 10:48:24;;;;;;;2.97;2.63;;;;;;;24.24;43.84;96292.88;5062329;28;20220;-79
2022/06/11 10:50:52;;;;;;;3.38;3.17;;;;;;;24.77;42.34;96294.78;5068508;28;20221;-80
2022/06/11 10:53:28;;;;;;;2.40;2.20;;;;;;;25.18;41.37;96292.56;5080423;28;20235;-80
2022/06/11 10:55:58;;;;;;;3.85;2.60;;;;;;;25.55;40.98;96287.28;5079266;28;20756;-79
2022/06/11 10:58:29;;;;;;;2.97;2.17;;;;;;;25.69;38.83;96286.63;5072968;28;20267;-79
2022/06/11 11:00:59;;;;;;;2.58;2.30;;;;;;;25.77;38.23;96288.78;5063374;28;20213;-79
2022/06/11 11:03:36;;;;;;;2.40;2.20;;;;;;;25.88;38.13;96291.47;5075375;28;20240;-78
2022/06/11 11:06:06;;;;;;;2.65;2.35;;;;;;;26.08;39.40;96287.09;5079808;28;20197;-80
2022/06/11 11:08:50;;;;;;;4.30;3.83;;;;;;;26.25;37.83;96278.19;5078566;28;20197;-79
2022/06/11 11:11:18;;;;;;;2.33;2.15;;;;;;;26.10;35.67;96290.28;5078967;28;20836;-79
2022/06/11 11:13:46;;;;;;;2.00;1.90;;;;;;;26.03;36.71;96280.97;5067491;28;20217;-79
2022/06/11 11:16:22;;;;;;;2.40;2.20;;;;;;;26.13;37.01;96279.19;5065809;28;20281;-80
2022/06/11 11:19:05;;;;;;;1.83;1.73;;;;;;;26.33;36.22;96283.00;5077696;28;20196;-79
2022/06/11 11:21:34;;;;;;;2.33;2.13;;;;;;;26.34;38.68;96285.38;5077148;28;20248;-79
2022/06/11 11:24:08;;;;;;;3.03;2.22;;;;;;;26.52;38.84;96275.41;5078637;28;20224;-79
2022/06/11 11:26:39;;;;;;;2.55;2.10;;;;;;;26.62;37.46;96278.06;5071052;28;20248;-80
2022/06/11 11:29:11;;;;;;;3.00;2.40;;;;;;;26.70;37.62;96269.63;5070636;28;20224;-79
2022/06/11 11:31:45;;;;;;;2.70;2.47;;;;;;;26.87;38.32;96285.25;5071187;28;20591;-79
2022/06/11 11:34:15;;;;;;;2.40;2.20;;;;;;;26.65;37.64;96270.41;5079199;28;20216;-80
2022/06/11 11:36:42;;;;;;;3.05;2.10;;;;;;;26.06;37.34;96275.19;5078190;28;20228;-80
2022/06/11 11:39:22;;;;;;;5.00;2.80;;;;;;;25.47;38.52;96272.72;5074180;28;20239;-80
2022/06/11 11:42:01;;;;;;;5.65;2.90;;;;;;;25.03;39.97;96272.91;5058445;28;20197;-78
2022/06/11 11:44:28;;;;;;;7.30;6.68;;;;;;;24.85;41.63;96278.50;5059836;28;20641;-80
2022/06/11 11:47:00;;;;;;;3.75;2.60;;;;;;;24.60;40.23;96265.91;5059258;28;20205;-80
2022/06/11 11:49:30;;;;;;;3.75;3.05;;;;;;;24.47;39.96;96268.91;5058780;28;20244;-79
2022/06/11 11:52:04;;;;;;;2.63;2.42;;;;;;;24.39;40.15;96269.38;5057250;28;20225;-79
2022/06/11 11:54:34;;;;;;;5.43;2.60;;;;;;;24.29;40.83;96267.41;5076443;28;20633;-79
2022/06/11 11:57:05;;;;;;;3.30;2.40;;;;;;;24.67;40.33;96271.75;5078195;28;20204;-78